Terminal Aerodrome Forecast
Issued by NWS Charleston, WV

Current Version | Previous Version | Graphics & Text | Print | Product List | Glossary On
Versions: 1 2 3 4 5 6 7 8 9 10 11 12 13 14 15 16 17 18 19 20 21 22 23 24
000
FTUS41 KRLX 240200 AAA
TAFEKN
TAF AMD
KEKN 240237Z 2403/2424 35005KT 5SM -RASN BR OVC030
     FM240600 34003KT 3SM -SN BR OVC010
     FM240800 00000KT 6SM -SN OVC015
     FM241400 00000KT P6SM OVC020
     FM241700 29004KT P6SM BKN025
     FM242100 30005KT P6SM BKN035
     FM242300 00000KT P6SM BKN200=

USA.gov is the U.S. government's official web portal to all federal, state and local government web resources and services.